createdAt,value
2022-09-17T00:00:58.978Z,9.43
2022-09-17T00:03:28.362Z,9.83
2022-09-17T00:06:02.864Z,6.33
2022-09-17T00:08:31.546Z,10.40
2022-09-17T00:10:59.895Z,6.07
2022-09-17T00:13:28.288Z,8.47
2022-09-17T00:15:56.742Z,9.73
2022-09-17T00:18:25.154Z,8.20
2022-09-17T00:20:53.486Z,7.17
2022-09-17T00:23:23.278Z,9.60
2022-09-17T00:25:51.715Z,8.33
2022-09-17T00:28:20.125Z,10.00
2022-09-17T00:30:48.503Z,9.57
2022-09-17T00:33:17.863Z,11.83
2022-09-17T00:35:46.667Z,13.17
2022-09-17T00:38:15.054Z,7.57
2022-09-17T00:40:44.753Z,7.00
2022-09-17T00:43:13.497Z,9.93
2022-09-17T00:45:41.843Z,7.73
2022-09-17T00:48:12.234Z,8.10
2022-09-17T00:50:41.996Z,14.27
2022-09-17T00:53:12.367Z,11.53
2022-09-17T00:55:41.974Z,13.50
2022-09-17T00:58:13.714Z,10.47
2022-09-17T01:00:42.488Z,10.63
2022-09-17T01:03:10.906Z,13.27
2022-09-17T01:05:42.375Z,9.63
2022-09-17T01:08:15.286Z,11.27
2022-09-17T01:10:55.740Z,12.70
2022-09-17T01:13:30.411Z,14.67
2022-09-17T01:16:02.862Z,14.40
2022-09-17T01:18:37.399Z,11.13
2022-09-17T01:21:26.831Z,12.63
2022-09-17T01:24:07.675Z,12.43
2022-09-17T01:26:50.685Z,13.73
2022-09-17T01:29:30.408Z,11.53
2022-09-17T01:32:01.580Z,9.13
2022-09-17T01:34:32.595Z,13.37
2022-09-17T01:37:04.507Z,13.67
2022-09-17T01:39:36.136Z,12.37
2022-09-17T01:42:09.923Z,12.60
2022-09-17T01:44:40.185Z,13.67
2022-09-17T01:47:11.791Z,13.07
2022-09-17T01:49:40.849Z,13.50
2022-09-17T01:52:10.342Z,9.90
2022-09-17T01:54:42.668Z,10.47
2022-09-17T01:57:12.107Z,10.50
2022-09-17T01:59:43.145Z,11.43
2022-09-17T02:02:15.393Z,13.80
2022-09-17T02:04:46.302Z,18.03
2022-09-17T02:07:17.012Z,11.53
2022-09-17T02:09:48.348Z,14.20
2022-09-17T02:12:20.241Z,13.03
2022-09-17T02:14:50.363Z,16.67
2022-09-17T02:17:22.648Z,12.30
2022-09-17T02:19:51.090Z,9.40
2022-09-17T02:22:23.293Z,17.10
2022-09-17T02:24:57.168Z,11.00
2022-09-17T02:27:32.463Z,8.47
2022-09-17T02:30:00.819Z,12.97
2022-09-17T02:32:30.667Z,10.93
2022-09-17T02:34:59.032Z,10.90
2022-09-17T02:37:27.800Z,14.00
2022-09-17T02:39:56.806Z,9.20
2022-09-17T02:42:30.487Z,12.43
2022-09-17T02:45:03.133Z,11.40
2022-09-17T02:47:40.263Z,14.17
2022-09-17T02:50:14.851Z,13.23
2022-09-17T02:52:49.151Z,13.60
2022-09-17T02:55:20.133Z,11.07
2022-09-17T02:57:50.045Z,10.10
2022-09-17T03:00:19.388Z,13.87
2022-09-17T03:02:50.556Z,13.60
2022-09-17T03:05:20.444Z,11.00
2022-09-17T03:07:48.986Z,11.13
2022-09-17T03:10:17.782Z,12.13
2022-09-17T03:12:46.177Z,9.90
2022-09-17T03:15:14.594Z,14.20
2022-09-17T03:17:43.022Z,15.73
2022-09-17T03:20:15.988Z,15.37
2022-09-17T03:22:44.462Z,10.70
2022-09-17T03:25:13.294Z,16.90
2022-09-17T03:27:41.752Z,16.83
2022-09-17T03:30:10.401Z,16.73
2022-09-17T03:32:38.777Z,13.90
2022-09-17T03:35:07.247Z,14.40
2022-09-17T03:37:37.013Z,13.77
2022-09-17T03:40:05.760Z,15.20
2022-09-17T03:42:34.203Z,16.57
2022-09-17T03:45:02.532Z,21.20
2022-09-17T03:47:30.932Z,14.57
2022-09-17T03:49:59.257Z,20.20
2022-09-17T03:52:27.626Z,12.63
2022-09-17T03:54:57.315Z,14.13
2022-09-17T03:57:25.838Z,15.37
2022-09-17T03:59:54.225Z,17.83
2022-09-17T04:02:22.721Z,15.30
2022-09-17T04:04:52.364Z,19.03
2022-09-17T04:07:20.734Z,12.23
2022-09-17T04:09:49.068Z,12.43
2022-09-17T04:12:18.815Z,15.83
2022-09-17T04:14:47.157Z,12.07
2022-09-17T04:17:18.275Z,11.77
2022-09-17T04:19:46.657Z,17.60
2022-09-17T04:22:14.995Z,13.70
2022-09-17T04:24:43.450Z,16.37
2022-09-17T04:27:11.891Z,12.17
2022-09-17T04:29:41.700Z,13.37
2022-09-17T04:32:10.176Z,16.60
2022-09-17T04:34:38.567Z,17.67
2022-09-17T04:37:06.945Z,14.90
2022-09-17T04:39:35.730Z,15.23
2022-09-17T04:42:04.070Z,11.00
2022-09-17T04:44:32.461Z,14.77
2022-09-17T04:47:02.177Z,14.07
2022-09-17T04:49:31.121Z,13.77
2022-09-17T04:51:59.452Z,10.93
2022-09-17T04:54:27.847Z,15.93
2022-09-17T04:56:56.185Z,11.77
2022-09-17T04:59:24.548Z,13.73
2022-09-17T05:01:52.954Z,12.00
2022-09-17T05:04:22.716Z,10.77
2022-09-17T05:06:51.082Z,13.87
2022-09-17T05:09:19.913Z,14.13
2022-09-17T05:11:48.257Z,12.73
2022-09-17T05:14:16.658Z,11.00
2022-09-17T05:16:44.980Z,11.10
2022-09-17T05:19:13.416Z,11.63
2022-09-17T05:21:43.135Z,10.43
2022-09-17T05:24:11.501Z,12.27
2022-09-17T05:26:43.676Z,13.17
2022-09-17T05:29:12.219Z,14.97
2022-09-17T05:31:40.664Z,12.57
2022-09-17T05:34:09.082Z,10.63
2022-09-17T05:36:37.396Z,14.83
2022-09-17T05:39:07.208Z,13.07
2022-09-17T05:41:35.982Z,14.37
2022-09-17T05:44:04.611Z,16.80
2022-09-17T05:46:32.972Z,12.07
2022-09-17T05:49:01.371Z,14.13
2022-09-17T05:51:30.041Z,11.90
2022-09-17T05:53:58.411Z,11.67
2022-09-17T05:56:28.127Z,13.00
2022-09-17T05:58:57.658Z,14.83
2022-09-17T06:01:26.207Z,12.50
2022-09-17T06:03:55.021Z,15.47
2022-09-17T06:06:23.386Z,11.73
2022-09-17T06:08:51.753Z,13.13
2022-09-17T06:11:20.097Z,10.30
2022-09-17T06:13:53.203Z,10.97
2022-09-17T06:16:22.430Z,8.77
2022-09-17T06:18:52.999Z,14.40
2022-09-17T06:21:22.954Z,16.60
2022-09-17T06:23:51.572Z,10.57
2022-09-17T06:26:20.121Z,10.77
2022-09-17T06:28:49.965Z,15.60
2022-09-17T06:31:18.480Z,16.23
2022-09-17T06:33:48.295Z,19.30
2022-09-17T06:36:16.637Z,10.13
2022-09-17T06:38:45.050Z,9.17
2022-09-17T06:41:14.621Z,12.43
2022-09-17T06:43:43.031Z,8.90
2022-09-17T06:46:12.984Z,8.03
2022-09-17T06:48:41.454Z,12.03
2022-09-17T06:51:10.600Z,11.63
2022-09-17T06:53:39.600Z,10.57
2022-09-17T06:56:08.594Z,10.00
2022-09-17T06:58:38.184Z,8.50
2022-09-17T07:01:07.108Z,11.40
2022-09-17T07:03:37.387Z,11.20
2022-09-17T07:06:06.262Z,8.90
2022-09-17T07:08:35.561Z,13.20
2022-09-17T07:11:03.921Z,14.60
2022-09-17T07:13:32.374Z,10.27
2022-09-17T07:16:01.834Z,10.90
2022-09-17T07:18:30.579Z,8.03
2022-09-17T07:21:01.000Z,10.60
2022-09-17T07:23:30.457Z,13.17
2022-09-17T07:25:59.406Z,14.13
2022-09-17T07:28:28.907Z,10.90
2022-09-17T07:30:57.778Z,11.67
2022-09-17T07:33:27.823Z,9.70
2022-09-17T07:35:56.655Z,10.43
2022-09-17T07:38:27.060Z,11.00
2022-09-17T07:40:58.029Z,10.63
2022-09-17T07:43:26.748Z,8.67
2022-09-17T07:45:55.506Z,14.00
2022-09-17T07:48:24.264Z,10.47
2022-09-17T07:50:52.616Z,9.07
2022-09-17T07:53:21.683Z,8.77
2022-09-17T07:55:54.585Z,8.97
2022-09-17T07:58:23.297Z,9.87
2022-09-17T08:00:51.639Z,9.63
2022-09-17T08:03:20.066Z,9.07
2022-09-17T08:05:48.546Z,8.23
2022-09-17T08:08:21.149Z,9.23
2022-09-17T08:10:49.781Z,9.20
2022-09-17T08:13:19.534Z,7.53
2022-09-17T08:15:47.908Z,7.53
2022-09-17T08:18:17.715Z,7.50
2022-09-17T08:20:46.087Z,9.97
2022-09-17T08:23:14.475Z,11.70
2022-09-17T08:25:42.796Z,12.10
2022-09-17T08:28:11.376Z,10.07
2022-09-17T08:30:41.115Z,8.90
2022-09-17T08:33:09.516Z,8.77
2022-09-17T08:35:37.861Z,8.20
2022-09-17T08:38:07.470Z,10.07
2022-09-17T08:40:38.541Z,8.90
2022-09-17T08:43:09.110Z,8.00
2022-09-17T08:45:37.650Z,9.77
2022-09-17T08:48:08.483Z,9.37
2022-09-17T08:50:39.260Z,8.47
2022-09-17T08:53:26.270Z,11.13
2022-09-17T08:55:58.977Z,11.37
2022-09-17T08:58:45.066Z,8.73
2022-09-17T09:01:17.967Z,9.30
2022-09-17T09:03:55.464Z,8.00
2022-09-17T09:06:25.401Z,10.13
2022-09-17T09:08:57.805Z,10.27
2022-09-17T09:11:28.084Z,8.07
2022-09-17T09:13:58.942Z,10.40
2022-09-17T09:16:28.622Z,10.63
2022-09-17T09:19:01.711Z,8.93
2022-09-17T09:21:31.503Z,10.20
2022-09-17T09:24:04.425Z,8.80
2022-09-17T09:26:39.070Z,10.70
2022-09-17T09:29:13.409Z,8.43
2022-09-17T09:31:46.674Z,11.77
2022-09-17T09:34:16.831Z,9.63
2022-09-17T09:36:45.864Z,6.10
2022-09-17T09:39:17.038Z,8.73
2022-09-17T09:41:46.782Z,4.87
2022-09-17T09:44:16.806Z,8.40
2022-09-17T09:46:57.839Z,8.53
2022-09-17T09:49:32.557Z,9.03
2022-09-17T09:52:07.474Z,6.03
2022-09-17T09:54:43.932Z,7.37
2022-09-17T09:57:14.421Z,7.93
2022-09-17T09:59:42.811Z,10.03
2022-09-17T10:02:11.786Z,14.13
2022-09-17T10:04:41.874Z,8.97
2022-09-17T10:07:11.377Z,5.57
2022-09-17T10:09:40.934Z,7.03
2022-09-17T10:12:17.695Z,6.07
2022-09-17T10:14:46.719Z,21.67
2022-09-17T10:17:32.802Z,8.10
2022-09-17T10:20:19.313Z,7.33
2022-09-17T10:22:50.628Z,4.57
2022-09-17T10:25:28.233Z,6.70
2022-09-17T10:27:57.492Z,5.80
2022-09-17T10:30:26.066Z,8.00
2022-09-17T10:33:17.503Z,7.50
2022-09-17T10:35:58.219Z,8.40
2022-09-17T10:38:30.048Z,8.00
2022-09-17T10:41:13.326Z,7.40
2022-09-17T10:43:42.486Z,7.50
2022-09-17T10:46:12.537Z,9.33
2022-09-17T10:48:43.421Z,5.23
2022-09-17T10:51:21.973Z,5.90
2022-09-17T10:54:09.058Z,7.13
2022-09-17T10:56:40.027Z,5.33
2022-09-17T10:59:19.331Z,7.20
2022-09-17T11:01:55.258Z,7.03
2022-09-17T11:04:27.775Z,6.80
2022-09-17T11:07:13.387Z,7.73
2022-09-17T11:09:48.418Z,7.40
2022-09-17T11:12:26.104Z,5.70
2022-09-17T11:14:58.523Z,4.53
2022-09-17T11:17:33.254Z,5.43
2022-09-17T11:20:04.477Z,4.40
2022-09-17T11:22:40.551Z,5.23
2022-09-17T11:25:18.441Z,4.53
2022-09-17T11:28:04.564Z,3.83
2022-09-17T11:30:35.535Z,5.87
2022-09-17T11:33:21.624Z,10.43
2022-09-17T11:35:51.590Z,7.50
2022-09-17T11:38:23.974Z,5.43
2022-09-17T11:40:54.521Z,9.40
2022-09-17T11:43:28.520Z,7.23
2022-09-17T11:46:09.826Z,5.03
2022-09-17T11:48:41.234Z,5.83
2022-09-17T11:51:14.732Z,4.53
2022-09-17T11:53:46.308Z,4.23
2022-09-17T11:56:18.687Z,7.63
2022-09-17T11:58:50.434Z,5.73
2022-09-17T12:01:20.822Z,8.17
2022-09-17T12:03:51.747Z,10.83
2022-09-17T12:06:25.310Z,6.23
2022-09-17T12:08:58.761Z,5.43
2022-09-17T12:11:31.235Z,4.70
2022-09-17T12:14:02.341Z,4.47
2022-09-17T12:16:33.392Z,7.73
2022-09-17T12:19:04.660Z,2.83
2022-09-17T12:21:37.244Z,4.67
2022-09-17T12:24:12.989Z,3.97
2022-09-17T12:26:53.422Z,5.10
2022-09-17T12:29:32.181Z,5.17
2022-09-17T12:32:02.359Z,7.63
2022-09-17T12:34:36.699Z,5.13
2022-09-17T12:37:10.191Z,9.00
2022-09-17T12:39:50.026Z,7.10
2022-09-17T12:42:23.481Z,5.67
2022-09-17T12:45:03.130Z,7.27
2022-09-17T12:47:46.404Z,4.17
2022-09-17T12:50:21.545Z,4.57
2022-09-17T12:52:59.336Z,6.10
2022-09-17T12:55:41.187Z,5.37
2022-09-17T12:58:14.041Z,5.00
2022-09-17T13:00:45.303Z,4.03
2022-09-17T13:03:17.644Z,4.03
2022-09-17T13:05:58.798Z,4.13
2022-09-17T13:08:41.455Z,5.67
2022-09-17T13:11:30.671Z,7.93
2022-09-17T13:14:02.788Z,7.37
2022-09-17T13:16:36.398Z,6.77
2022-09-17T13:19:23.124Z,6.17
2022-09-17T13:21:54.671Z,10.00
2022-09-17T13:24:25.277Z,6.70
2022-09-17T13:26:54.596Z,6.57
2022-09-17T13:29:41.607Z,3.37
2022-09-17T13:32:11.917Z,4.63
2022-09-17T13:34:40.318Z,4.80
2022-09-17T13:37:20.032Z,5.10
2022-09-17T13:39:50.745Z,5.47
2022-09-17T13:42:21.510Z,2.93
2022-09-17T13:44:52.258Z,3.93
2022-09-17T13:47:24.291Z,4.63
2022-09-17T13:49:54.987Z,3.60
2022-09-17T13:52:40.619Z,1.90
2022-09-17T13:55:09.939Z,3.43
2022-09-17T13:57:48.208Z,1.40
2022-09-17T14:00:33.046Z,2.33
2022-09-17T14:03:28.667Z,2.33
2022-09-17T14:05:59.598Z,3.10
2022-09-17T14:08:30.605Z,6.30
2022-09-17T14:11:03.328Z,6.90
2022-09-17T14:13:42.614Z,4.57
2022-09-17T14:16:35.823Z,5.13
2022-09-17T14:19:07.748Z,6.53
2022-09-17T14:21:38.643Z,3.40
2022-09-17T14:24:25.395Z,4.83
2022-09-17T14:27:14.651Z,7.00
2022-09-17T14:29:55.169Z,5.90
2022-09-17T14:32:30.097Z,4.93
2022-09-17T14:34:59.967Z,6.17
2022-09-17T14:37:28.929Z,7.17
2022-09-17T14:39:57.563Z,5.60
2022-09-17T14:42:28.778Z,7.50
2022-09-17T14:45:00.028Z,6.63
2022-09-17T14:47:28.462Z,6.47
2022-09-17T14:49:56.985Z,3.73
2022-09-17T14:52:28.255Z,8.13
2022-09-17T14:55:14.987Z,7.57
2022-09-17T14:57:44.165Z,6.10
2022-09-17T15:00:18.311Z,7.20
2022-09-17T15:02:47.206Z,5.27
2022-09-17T15:05:19.996Z,2.40
2022-09-17T15:07:49.962Z,3.17
2022-09-17T15:10:19.374Z,6.40
2022-09-17T15:12:48.426Z,4.87
2022-09-17T15:15:22.562Z,4.87
2022-09-17T15:17:52.146Z,4.57
2022-09-17T15:20:22.064Z,6.83
2022-09-17T15:23:09.904Z,4.90
2022-09-17T15:25:39.124Z,4.77
2022-09-17T15:28:15.695Z,5.43
2022-09-17T15:30:44.060Z,5.70
2022-09-17T15:33:13.557Z,6.40
2022-09-17T15:35:42.182Z,4.53
2022-09-17T15:38:24.236Z,5.83
2022-09-17T15:40:53.125Z,3.37
2022-09-17T15:43:24.814Z,3.77
2022-09-17T15:45:53.162Z,5.10
2022-09-17T15:48:24.839Z,3.60
2022-09-17T15:50:54.277Z,3.57
2022-09-17T15:53:25.300Z,1.90
2022-09-17T15:56:04.675Z,5.07
2022-09-17T15:58:34.587Z,3.23
2022-09-17T16:01:26.943Z,3.10
2022-09-17T16:04:09.163Z,5.43
2022-09-17T16:06:40.633Z,6.37
2022-09-17T16:09:24.099Z,6.53
2022-09-17T16:11:53.896Z,5.33
2022-09-17T16:14:22.602Z,4.40
2022-09-17T16:16:55.782Z,5.03
2022-09-17T16:19:24.512Z,5.97
2022-09-17T16:21:53.174Z,5.13
2022-09-17T16:24:21.838Z,6.27
2022-09-17T16:26:50.313Z,5.40
2022-09-17T16:29:22.395Z,4.93
2022-09-17T16:31:51.489Z,6.43
2022-09-17T16:34:20.151Z,7.40
2022-09-17T16:36:48.516Z,6.30
2022-09-17T16:39:16.907Z,2.50
2022-09-17T16:41:45.276Z,6.53
2022-09-17T16:44:13.785Z,8.77
2022-09-17T16:46:43.554Z,7.17
2022-09-17T16:49:11.954Z,8.83
2022-09-17T16:51:40.368Z,8.77
2022-09-17T16:54:09.261Z,8.17
2022-09-17T16:56:37.646Z,8.50
2022-09-17T16:59:06.093Z,12.23
2022-09-17T17:01:35.501Z,8.47
2022-09-17T17:04:05.435Z,9.53
2022-09-17T17:06:33.803Z,8.17
2022-09-17T17:09:02.180Z,8.00
2022-09-17T17:11:30.547Z,15.97
2022-09-17T17:13:59.024Z,10.57
2022-09-17T17:16:27.479Z,10.43
2022-09-17T17:18:56.551Z,8.80
2022-09-17T17:21:26.390Z,7.53
2022-09-17T17:23:55.243Z,14.70
2022-09-17T17:26:23.604Z,8.77
2022-09-17T17:28:51.999Z,6.83
2022-09-17T17:31:20.885Z,7.47
2022-09-17T17:33:49.519Z,8.53
2022-09-17T17:36:17.928Z,11.63
2022-09-17T17:38:48.690Z,9.73
2022-09-17T17:41:18.098Z,5.27
2022-09-17T17:43:46.582Z,9.80
2022-09-17T17:46:15.762Z,11.40
2022-09-17T17:48:45.081Z,10.10
2022-09-17T17:51:13.420Z,10.30
2022-09-17T17:53:43.538Z,8.97
2022-09-17T17:56:13.636Z,10.73
2022-09-17T17:58:42.571Z,8.53
2022-09-17T18:01:12.086Z,10.27
2022-09-17T18:03:40.506Z,6.63
2022-09-17T18:06:09.975Z,8.10
2022-09-17T18:08:38.888Z,8.67
2022-09-17T18:11:08.397Z,8.93
2022-09-17T18:13:38.736Z,10.00
2022-09-17T18:16:09.144Z,5.13
2022-09-17T18:18:43.545Z,10.10
2022-09-17T18:21:13.815Z,6.40
2022-09-17T18:23:42.693Z,8.50
2022-09-17T18:26:13.021Z,7.33
2022-09-17T18:28:43.080Z,8.80
2022-09-17T18:31:16.036Z,6.47
2022-09-17T18:33:44.533Z,8.00
2022-09-17T18:36:13.222Z,6.30
2022-09-17T18:38:41.646Z,8.07
2022-09-17T18:41:12.843Z,9.70
2022-09-17T18:43:41.455Z,7.27
2022-09-17T18:46:11.659Z,11.03
2022-09-17T18:48:40.157Z,9.17
2022-09-17T18:51:09.444Z,9.83
2022-09-17T18:53:39.960Z,9.13
2022-09-17T18:56:13.922Z,11.30
2022-09-17T18:58:54.987Z,7.00
2022-09-17T19:01:26.957Z,10.87
2022-09-17T19:03:58.936Z,5.53
2022-09-17T19:06:37.455Z,8.97
2022-09-17T19:09:08.828Z,10.20
2022-09-17T19:11:37.743Z,7.37
2022-09-17T19:14:16.104Z,8.30
2022-09-17T19:16:46.294Z,5.30
2022-09-17T19:19:15.215Z,7.23
2022-09-17T19:21:50.953Z,5.63
2022-09-17T19:24:19.753Z,7.07
2022-09-17T19:26:54.765Z,6.97
2022-09-17T19:29:29.584Z,6.33
2022-09-17T19:31:59.330Z,6.67
2022-09-17T19:34:28.009Z,6.33
2022-09-17T19:36:57.107Z,10.67
2022-09-17T19:39:26.090Z,6.00
2022-09-17T19:41:55.317Z,7.13
2022-09-17T19:44:24.969Z,8.70
2022-09-17T19:47:01.185Z,5.70
2022-09-17T19:49:30.106Z,11.23
2022-09-17T19:51:58.764Z,8.93
2022-09-17T19:54:30.191Z,9.60
2022-09-17T19:56:58.840Z,8.10
2022-09-17T19:59:27.774Z,9.80
2022-09-17T20:01:56.483Z,8.33
2022-09-17T20:04:26.315Z,9.40
2022-09-17T20:06:54.651Z,6.13
2022-09-17T20:09:23.167Z,5.63
2022-09-17T20:11:51.740Z,9.27
2022-09-17T20:14:20.233Z,6.63
2022-09-17T20:16:48.622Z,9.23
2022-09-17T20:19:17.665Z,8.10
2022-09-17T20:21:47.590Z,10.83
2022-09-17T20:24:15.980Z,7.33
2022-09-17T20:26:44.305Z,5.93
2022-09-17T20:29:12.742Z,6.50
2022-09-17T20:31:41.166Z,5.87
2022-09-17T20:34:09.593Z,7.33
2022-09-17T20:36:38.246Z,5.70
2022-09-17T20:39:14.235Z,8.73
2022-09-17T20:41:43.266Z,6.57
2022-09-17T20:44:11.719Z,7.57
2022-09-17T20:46:40.518Z,6.73
2022-09-17T20:49:09.017Z,6.63
2022-09-17T20:51:37.559Z,6.17
2022-09-17T20:54:06.435Z,7.27
2022-09-17T20:56:36.832Z,8.20
2022-09-17T20:59:14.545Z,6.53
2022-09-17T21:01:44.826Z,7.03
2022-09-17T21:04:14.882Z,4.80
2022-09-17T21:06:44.009Z,9.90
2022-09-17T21:09:15.904Z,8.23
2022-09-17T21:11:46.132Z,6.83
2022-09-17T21:14:15.936Z,8.53
2022-09-17T21:16:44.929Z,8.97
2022-09-17T21:19:14.983Z,10.07
2022-09-17T21:21:44.460Z,7.80
2022-09-17T21:24:12.967Z,5.90
2022-09-17T21:26:41.445Z,6.57
2022-09-17T21:29:11.488Z,8.37
2022-09-17T21:31:40.053Z,6.93
2022-09-17T21:34:09.304Z,10.83
2022-09-17T21:36:38.623Z,7.07
2022-09-17T21:39:08.102Z,6.53
2022-09-17T21:41:40.087Z,8.27
2022-09-17T21:44:12.789Z,5.77
2022-09-17T21:46:41.993Z,10.07
2022-09-17T21:49:11.077Z,6.40
2022-09-17T21:51:40.074Z,7.97
2022-09-17T21:54:09.437Z,7.40
2022-09-17T21:56:38.297Z,8.00
2022-09-17T21:59:07.602Z,5.37
2022-09-17T22:01:39.921Z,6.37
2022-09-17T22:04:09.110Z,5.27
2022-09-17T22:06:38.127Z,5.97
2022-09-17T22:09:07.417Z,7.87
2022-09-17T22:11:36.751Z,9.47
2022-09-17T22:14:08.843Z,6.50
2022-09-17T22:16:39.975Z,8.10
2022-09-17T22:19:09.657Z,6.80
2022-09-17T22:21:38.837Z,10.20
2022-09-17T22:24:07.726Z,9.63
2022-09-17T22:26:37.602Z,6.37
2022-09-17T22:29:07.478Z,8.67
2022-09-17T22:31:36.027Z,5.00
2022-09-17T22:34:08.608Z,6.43
2022-09-17T22:36:36.992Z,7.50
2022-09-17T22:39:05.702Z,7.13
2022-09-17T22:41:35.092Z,7.13
2022-09-17T22:44:04.758Z,7.67
2022-09-17T22:46:33.720Z,6.43
2022-09-17T22:49:02.200Z,7.03
2022-09-17T22:51:32.128Z,7.80
2022-09-17T22:54:01.026Z,9.30
2022-09-17T22:56:30.159Z,8.13
2022-09-17T22:58:58.785Z,8.17
2022-09-17T23:01:29.872Z,9.10
2022-09-17T23:03:58.913Z,6.27
2022-09-17T23:06:28.523Z,7.60
2022-09-17T23:08:58.702Z,8.13
2022-09-17T23:11:28.205Z,8.30
2022-09-17T23:13:58.417Z,7.50
2022-09-17T23:16:26.883Z,6.70
2022-09-17T23:18:55.265Z,6.30
2022-09-17T23:21:23.647Z,12.30
2022-09-17T23:23:52.539Z,7.23
2022-09-17T23:26:23.271Z,6.23
2022-09-17T23:28:52.099Z,7.67
2022-09-17T23:31:21.130Z,5.63
2022-09-17T23:33:52.114Z,7.33
2022-09-17T23:36:21.686Z,7.60
2022-09-17T23:38:50.466Z,8.70
2022-09-17T23:41:19.692Z,6.00
2022-09-17T23:43:50.154Z,9.47
2022-09-17T23:46:18.693Z,5.73
2022-09-17T23:48:47.224Z,7.70
2022-09-17T23:51:16.452Z,7.87
2022-09-17T23:53:45.059Z,7.13
2022-09-17T23:56:14.271Z,8.33
2022-09-17T23:58:42.615Z,7.77
